Time;durP1;ratioP1;P1;durP2;ratioP2;P2;SDS_P1;SDS_P2;PMS_P1;PMS_P2;Temp;Humidity;BMP_temperature;BMP_pressure;BME280_temperature;BME280_humidity;BME280_pressure;Samples;Min_cycle;Max_cycle;Signal;HPM_P1;HPM_P2
2023/07/28 00:01:49;;;;;;;0.15;0.15;;;18.30;99.90;;;;;;5045622;28;20037;-95
2023/07/28 00:04:15;;;;;;;0.15;0.15;;;18.20;99.90;;;;;;5045382;28;20049;-96
2023/07/28 00:06:43;;;;;;;0.20;0.20;;;18.40;99.90;;;;;;5025410;28;20045;-96
2023/07/28 00:09:09;;;;;;;0.20;0.20;;;18.80;99.90;;;;;;5040847;28;20230;-96
2023/07/28 00:11:35;;;;;;;0.20;0.20;;;18.30;99.90;;;;;;5044971;28;20160;-96
2023/07/28 00:14:02;;;;;;;0.20;0.20;;;17.90;99.90;;;;;;5045414;28;20099;-94
2023/07/28 00:16:30;;;;;;;0.20;0.20;;;18.50;99.90;;;;;;5041627;28;20045;-96
2023/07/28 00:18:56;;;;;;;0.15;0.15;;;18.70;99.90;;;;;;5031154;28;20398;-96
2023/07/28 00:21:22;;;;;;;0.20;0.20;;;18.20;99.90;;;;;;5028027;28;20053;-96
2023/07/28 00:23:48;;;;;;;0.20;0.20;;;18.60;99.90;;;;;;5035466;28;20041;-96
2023/07/28 00:26:14;;;;;;;0.20;0.20;;;18.30;99.90;;;;;;5028093;28;20038;-96
2023/07/28 00:28:40;;;;;;;0.20;0.20;;;18.30;99.90;;;;;;5025052;28;20128;-96
2023/07/28 00:31:05;;;;;;;0.20;0.20;;;18.30;99.90;;;;;;5031925;28;20069;-95
2023/07/28 00:33:31;;;;;;;0.20;0.20;;;18.40;99.90;;;;;;5022291;28;20042;-96
2023/07/28 00:35:57;;;;;;;0.20;0.20;;;18.60;99.90;;;;;;5036761;28;20057;-95
2023/07/28 00:38:23;;;;;;;0.20;0.20;;;18.50;99.90;;;;;;5033527;28;20104;-96
2023/07/28 00:40:49;;;;;;;0.20;0.20;;;18.60;99.90;;;;;;5025479;28;20038;-96
2023/07/28 00:43:14;;;;;;;0.20;0.20;;;18.40;99.90;;;;;;5034315;28;20093;-96
2023/07/28 00:45:40;;;;;;;0.20;0.20;;;18.30;99.90;;;;;;5035115;28;20426;-96
2023/07/28 00:48:12;;;;;;;0.20;0.20;;;18.40;99.90;;;;;;5033083;28;20052;-95
2023/07/28 00:50:41;;;;;;;0.20;0.20;;;18.50;99.90;;;;;;5037153;28;20097;-94
2023/07/28 00:53:07;;;;;;;0.20;0.20;;;18.50;99.90;;;;;;5034437;28;20049;-96
2023/07/28 00:55:33;;;;;;;0.20;0.20;;;18.50;99.90;;;;;;5036993;28;20102;-96
2023/07/28 00:57:59;;;;;;;0.20;0.20;;;18.40;99.90;;;;;;5035793;28;20132;-96
2023/07/28 01:00:25;;;;;;;0.17;0.17;;;18.30;99.90;;;;;;5032516;28;20188;-94
2023/07/28 01:02:50;;;;;;;0.20;0.20;;;18.40;99.90;;;;;;5037727;28;20084;-96
2023/07/28 01:05:16;;;;;;;0.20;0.20;;;18.50;99.90;;;;;;5043794;28;20066;-94
2023/07/28 01:08:15;;;;;;;0.10;0.10;;;18.30;99.90;;;;;;5035546;28;20045;-96
2023/07/28 01:10:41;;;;;;;0.20;0.20;;;18.50;99.90;;;;;;5034074;28;20152;-96
2023/07/28 01:13:07;;;;;;;0.20;0.20;;;18.30;99.90;;;;;;5024315;28;20204;-96
2023/07/28 01:15:33;;;;;;;0.10;0.10;;;18.50;99.90;;;;;;5031591;28;20041;-96
2023/07/28 01:17:58;;;;;;;0.20;0.20;;;18.50;99.90;;;;;;5022270;28;20041;-96
2023/07/28 01:20:28;;;;;;;0.20;0.20;;;18.60;99.90;;;;;;5025893;28;20073;-96
2023/07/28 01:22:57;;;;;;;0.10;0.10;;;18.60;99.90;;;;;;5034760;28;20083;-95
2023/07/28 01:25:43;;;;;;;0.20;0.20;;;18.40;99.90;;;;;;5036711;28;20046;-96
2023/07/28 01:28:12;;;;;;;0.20;0.20;;;18.40;99.90;;;;;;5045735;28;20063;-96
2023/07/28 01:30:38;;;;;;;0.10;0.10;;;18.60;99.90;;;;;;5047322;28;20041;-96
2023/07/28 01:33:07;;;;;;;0.20;0.20;;;18.40;99.90;;;;;;5039155;28;20052;-96
2023/07/28 01:35:33;;;;;;;0.20;0.20;;;18.50;99.90;;;;;;5047851;28;20083;-96
2023/07/28 01:37:59;;;;;;;0.20;0.20;;;18.60;99.90;;;;;;5052715;28;20057;-95
2023/07/28 01:40:24;;;;;;;0.20;0.20;;;18.40;99.90;;;;;;5048636;28;20028;-96
2023/07/28 01:42:50;;;;;;;0.20;0.20;;;18.60;99.90;;;;;;5046834;28;20147;-96
2023/07/28 01:45:16;;;;;;;0.13;0.13;;;18.40;99.90;;;;;;5039721;28;20045;-94
2023/07/28 01:47:41;;;;;;;0.20;0.20;;;18.50;99.90;;;;;;5048092;28;20136;-96
2023/07/28 01:50:10;;;;;;;0.20;0.20;;;18.40;99.90;;;;;;5166528;23;20060;-96
2023/07/28 01:52:36;;;;;;;0.20;0.20;;;17.80;99.90;;;;;;5107766;28;20024;-94
2023/07/28 01:55:02;;;;;;;0.20;0.20;;;18.40;99.90;;;;;;5096139;28;20036;-96
2023/07/28 01:57:33;;;;;;;0.20;0.20;;;18.70;99.90;;;;;;5110629;28;20067;-96
2023/07/28 01:59:59;;;;;;;0.13;0.13;;;18.30;99.90;;;;;;5239976;22;20518;-95
2023/07/28 02:02:25;;;;;;;0.20;0.20;;;19.00;99.90;;;;;;5093622;28;20058;-96
2023/07/28 02:04:51;;;;;;;0.20;0.20;;;18.70;99.90;;;;;;5085900;28;20063;-96
2023/07/28 02:07:17;;;;;;;0.15;0.15;;;18.80;99.90;;;;;;5080169;28;20037;-95
2023/07/28 02:09:43;;;;;;;0.10;0.10;;;18.30;99.90;;;;;;5084686;28;20110;-96
2023/07/28 02:12:09;;;;;;;0.10;0.10;;;18.50;99.90;;;;;;5084253;28;20085;-96
2023/07/28 02:14:35;;;;;;;0.20;0.20;;;18.00;99.90;;;;;;5089874;28;20044;-96
2023/07/28 02:17:01;;;;;;;0.20;0.20;;;18.40;99.90;;;;;;5086329;28;20426;-96
2023/07/28 02:19:27;;;;;;;0.20;0.20;;;18.50;99.90;;;;;;5074110;28;20048;-96
2023/07/28 02:21:53;;;;;;;0.17;0.17;;;19.40;99.90;;;;;;5069386;28;20492;-95
2023/07/28 02:24:19;;;;;;;0.20;0.20;;;18.50;99.90;;;;;;5075690;28;20048;-95
2023/07/28 02:26:45;;;;;;;0.20;0.20;;;18.70;99.90;;;;;;5081155;28;20036;-96
2023/07/28 02:29:11;;;;;;;0.20;0.20;;;18.70;99.90;;;;;;5081465;28;20048;-96
2023/07/28 02:31:36;;;;;;;0.20;0.20;;;19.70;99.90;;;;;;5071174;28;20037;-96
2023/07/28 02:34:05;;;;;;;0.20;0.20;;;18.50;99.90;;;;;;5073297;28;20046;-96
2023/07/28 02:36:40;;;;;;;0.20;0.20;;;18.50;99.90;;;;;;5081253;28;20079;-96
2023/07/28 02:39:06;;;;;;;0.10;0.10;;;18.70;99.90;;;;;;5077574;28;20048;-95
2023/07/28 02:41:34;;;;;;;0.20;0.20;;;18.60;99.90;;;;;;5089515;28;20102;-96
2023/07/28 02:44:00;;;;;;;0.20;0.20;;;17.70;99.90;;;;;;5086969;28;20434;-94
2023/07/28 02:46:26;;;;;;;0.20;0.20;;;18.70;99.90;;;;;;5078178;28;20045;-95
2023/07/28 02:48:52;;;;;;;0.20;0.20;;;18.60;99.90;;;;;;5077010;28;20076;-95
2023/07/28 02:51:18;;;;;;;0.20;0.20;;;18.40;99.90;;;;;;5080601;28;20048;-96
2023/07/28 02:53:44;;;;;;;0.20;0.20;;;18.60;99.90;;;;;;5064045;28;20051;-96
2023/07/28 02:56:09;;;;;;;0.10;0.10;;;18.60;99.90;;;;;;5078639;28;20079;-96
2023/07/28 02:58:35;;;;;;;0.20;0.20;;;18.80;99.90;;;;;;5080017;28;20087;-95
2023/07/28 03:01:01;;;;;;;0.20;0.20;;;18.50;99.90;;;;;;5079744;28;20044;-96
2023/07/28 03:03:27;;;;;;;0.20;0.20;;;18.50;99.90;;;;;;5073757;28;20041;-94
2023/07/28 03:05:53;;;;;;;0.20;0.20;;;18.80;99.90;;;;;;5079719;28;20561;-95
2023/07/28 03:08:20;;;;;;;0.20;0.20;;;18.50;99.90;;;;;;5080714;28;20116;-95
2023/07/28 03:10:46;;;;;;;0.20;0.20;;;18.60;99.90;;;;;;5075408;28;20068;-95
2023/07/28 03:13:12;;;;;;;0.20;0.20;;;18.70;99.90;;;;;;5083373;28;20075;-96
2023/07/28 03:15:37;;;;;;;0.20;0.20;;;18.80;99.90;;;;;;5074354;28;20100;-95
2023/07/28 03:18:03;;;;;;;0.10;0.10;;;18.70;99.90;;;;;;5062605;28;20067;-96
2023/07/28 03:20:29;;;;;;;0.20;0.20;;;18.50;99.90;;;;;;5076539;28;20070;-96
2023/07/28 03:22:55;;;;;;;0.20;0.20;;;18.50;99.90;;;;;;5071743;28;20040;-96
2023/07/28 03:25:21;;;;;;;0.20;0.20;;;18.70;99.90;;;;;;5080190;28;20040;-96
2023/07/28 03:27:47;;;;;;;0.20;0.20;;;18.60;99.90;;;;;;5081411;28;20507;-95
2023/07/28 03:30:13;;;;;;;0.20;0.20;;;18.70;99.90;;;;;;5083715;28;20033;-96
2023/07/28 03:32:39;;;;;;;0.20;0.20;;;18.90;99.90;;;;;;5078913;28;20109;-95
2023/07/28 03:35:06;;;;;;;0.20;0.20;;;18.80;99.90;;;;;;5075025;28;20480;-96
2023/07/28 03:37:33;;;;;;;0.20;0.20;;;17.80;99.90;;;;;;5074657;28;20058;-95
2023/07/28 03:39:59;;;;;;;0.20;0.20;;;18.60;99.90;;;;;;5093883;28;20582;-95
2023/07/28 03:42:24;;;;;;;0.20;0.20;;;18.80;99.90;;;;;;5085119;28;20087;-96
2023/07/28 03:44:51;;;;;;;0.20;0.20;;;18.70;99.90;;;;;;5079744;28;20048;-95
2023/07/28 03:47:17;;;;;;;0.17;0.17;;;18.60;99.90;;;;;;5081941;28;20036;-93
2023/07/28 03:49:42;;;;;;;0.13;0.13;;;18.70;99.90;;;;;;5061460;28;20044;-96
2023/07/28 03:52:08;;;;;;;0.20;0.20;;;18.70;99.90;;;;;;5066345;28;20087;-95
2023/07/28 03:54:34;;;;;;;0.20;0.20;;;18.70;99.90;;;;;;5073418;28;20182;-95
2023/07/28 03:57:00;;;;;;;0.20;0.20;;;18.60;99.90;;;;;;5065898;28;20083;-95
2023/07/28 03:59:26;;;;;;;0.20;0.20;;;18.80;99.90;;;;;;5074911;28;20059;-95
2023/07/28 04:01:58;;;;;;;0.20;0.20;;;18.60;99.90;;;;;;5082840;28;20048;-96
2023/07/28 04:04:24;;;;;;;0.20;0.20;;;18.70;99.90;;;;;;5081798;28;20090;-96
2023/07/28 04:06:50;;;;;;;0.20;0.20;;;18.60;99.90;;;;;;5080904;28;20096;-95
2023/07/28 04:09:17;;;;;;;0.17;0.17;;;18.80;99.90;;;;;;5083711;28;20044;-96
2023/07/28 04:11:43;;;;;;;0.10;0.10;;;18.50;99.90;;;;;;5082775;28;20102;-95
2023/07/28 04:14:09;;;;;;;0.20;0.20;;;18.60;99.90;;;;;;5084904;28;20036;-95
2023/07/28 04:16:35;;;;;;;0.10;0.10;;;18.60;99.90;;;;;;5071186;28;20041;-96
2023/07/28 04:19:04;;;;;;;0.20;0.20;;;18.70;99.90;;;;;;5078020;28;20048;-96
2023/07/28 04:21:30;;;;;;;0.10;0.10;;;18.70;99.90;;;;;;5081059;28;20119;-96
2023/07/28 04:23:56;;;;;;;0.20;0.20;;;18.30;99.90;;;;;;5074554;28;20087;-96
2023/07/28 04:26:23;;;;;;;0.20;0.20;;;18.80;99.90;;;;;;5077980;28;20084;-96
2023/07/28 04:28:49;;;;;;;0.13;0.13;;;18.60;99.90;;;;;;5077510;28;20079;-96
2023/07/28 04:31:14;;;;;;;0.10;0.10;;;18.60;99.90;;;;;;5075723;28;20041;-95
2023/07/28 04:33:43;;;;;;;0.20;0.20;;;18.70;99.90;;;;;;5057463;28;20043;-96
2023/07/28 04:36:09;;;;;;;0.20;0.20;;;18.70;99.90;;;;;;5061902;28;20041;-96
2023/07/28 04:38:35;;;;;;;0.20;0.20;;;18.80;99.90;;;;;;5073246;28;20037;-96
2023/07/28 04:41:01;;;;;;;0.20;0.20;;;18.70;99.90;;;;;;5076244;28;20476;-96
2023/07/28 04:43:27;;;;;;;0.10;0.10;;;18.70;99.90;;;;;;5076252;28;20098;-96
2023/07/28 04:45:53;;;;;;;0.10;0.10;;;18.70;99.90;;;;;;5067515;28;20044;-95
2023/07/28 04:48:19;;;;;;;0.10;0.10;;;18.60;99.90;;;;;;5076078;28;20040;-96
2023/07/28 04:50:45;;;;;;;0.20;0.20;;;18.70;99.90;;;;;;5061191;28;20116;-96
2023/07/28 04:53:10;;;;;;;0.20;0.20;;;18.80;99.90;;;;;;5074884;28;20555;-96
2023/07/28 04:55:36;;;;;;;0.10;0.10;;;18.70;99.90;;;;;;5087747;28;20037;-95
2023/07/28 04:58:02;;;;;;;0.10;0.10;;;18.60;99.90;;;;;;5077869;28;20049;-96
2023/07/28 05:00:28;;;;;;;0.20;0.20;;;18.60;99.90;;;;;;5074742;28;20053;-96
2023/07/28 05:02:54;;;;;;;0.10;0.10;;;18.60;99.90;;;;;;5078316;28;20610;-96
2023/07/28 05:05:20;;;;;;;0.10;0.10;;;18.60;99.90;;;;;;5073169;28;20036;-94
2023/07/28 05:07:45;;;;;;;0.20;0.20;;;18.80;99.90;;;;;;5076632;28;20067;-96
2023/07/28 05:10:11;;;;;;;0.10;0.10;;;18.70;99.90;;;;;;5073565;28;20127;-96
2023/07/28 05:12:37;;;;;;;0.10;0.10;;;18.40;99.90;;;;;;5066340;28;20032;-96
2023/07/28 05:15:04;;;;;;;0.20;0.20;;;18.80;99.90;;;;;;5059232;28;20045;-96
2023/07/28 05:17:30;;;;;;;0.20;0.20;;;18.70;99.90;;;;;;5057921;28;20048;-96
2023/07/28 05:19:58;;;;;;;0.20;0.20;;;18.60;99.90;;;;;;5064721;28;20392;-96
2023/07/28 05:22:24;;;;;;;0.10;0.10;;;18.70;99.90;;;;;;5076518;28;20384;-96
2023/07/28 05:24:50;;;;;;;0.10;0.10;;;18.80;99.90;;;;;;5075618;28;20075;-94
2023/07/28 05:27:16;;;;;;;0.10;0.10;;;18.80;99.90;;;;;;5074899;28;20040;-96
2023/07/28 05:29:41;;;;;;;0.10;0.10;;;18.80;99.90;;;;;;5061943;28;20069;-94
2023/07/28 05:32:07;;;;;;;0.20;0.20;;;18.70;99.90;;;;;;5071678;28;20490;-95
2023/07/28 05:34:34;;;;;;;0.15;0.15;;;18.80;99.90;;;;;;5062695;28;20543;-95
2023/07/28 05:36:59;;;;;;;0.20;0.20;;;18.70;99.90;;;;;;5071039;28;20085;-88
2023/07/28 05:39:25;;;;;;;0.20;0.20;;;18.80;99.90;;;;;;5065013;28;20135;-87
2023/07/28 05:41:51;;;;;;;0.20;0.20;;;18.70;99.90;;;;;;5056590;28;20040;-87
2023/07/28 05:44:17;;;;;;;0.20;0.20;;;18.70;99.90;;;;;;5066213;28;20041;-93
2023/07/28 05:46:43;;;;;;;0.20;0.20;;;18.80;99.90;;;;;;5075801;28;20036;-95
2023/07/28 05:49:08;;;;;;;0.20;0.20;;;18.70;99.90;;;;;;5075591;28;20044;-95
2023/07/28 05:51:34;;;;;;;0.20;0.20;;;18.90;99.90;;;;;;5074100;28;20099;-95
2023/07/28 05:54:00;;;;;;;0.20;0.20;;;19.00;99.90;;;;;;5079347;28;20055;-96
2023/07/28 05:56:26;;;;;;;0.20;0.20;;;18.90;99.90;;;;;;5079625;28;20041;-96
2023/07/28 05:58:52;;;;;;;0.20;0.20;;;18.80;99.90;;;;;;5071439;28;20053;-96
2023/07/28 06:01:18;;;;;;;0.20;0.20;;;18.10;99.90;;;;;;5074168;28;20485;-95
2023/07/28 06:03:44;;;;;;;0.20;0.20;;;18.80;99.90;;;;;;5073510;28;20032;-79
2023/07/28 06:06:10;;;;;;;0.20;0.20;;;18.80;99.90;;;;;;5078937;28;20041;-93
2023/07/28 06:08:36;;;;;;;0.10;0.10;;;18.80;99.90;;;;;;5072305;28;20062;-93
2023/07/28 06:11:08;;;;;;;0.20;0.20;;;18.80;99.90;;;;;;5076663;28;20048;-93
2023/07/28 06:13:34;;;;;;;0.10;0.10;;;18.80;99.90;;;;;;5074911;28;20033;-96
2023/07/28 06:16:00;;;;;;;0.20;0.20;;;18.90;99.90;;;;;;5076974;28;20055;-94
2023/07/28 06:18:25;;;;;;;0.10;0.10;;;18.90;99.90;;;;;;5072404;28;20040;-92
2023/07/28 06:20:51;;;;;;;0.20;0.20;;;18.90;99.90;;;;;;5070045;28;20053;-93
2023/07/28 06:23:17;;;;;;;0.20;0.20;;;18.90;99.90;;;;;;5070104;28;20078;-92
2023/07/28 06:25:44;;;;;;;0.20;0.20;;;18.90;99.90;;;;;;5071809;28;20052;-92
2023/07/28 06:28:10;;;;;;;0.20;0.20;;;18.90;99.90;;;;;;5082101;28;20227;-91
2023/07/28 06:30:37;;;;;;;0.20;0.20;;;19.00;99.90;;;;;;5071865;28;20105;-93
2023/07/28 06:33:05;;;;;;;0.10;0.10;;;18.90;99.90;;;;;;5070966;28;20134;-91
2023/07/28 06:35:31;;;;;;;0.20;0.20;;;19.00;99.90;;;;;;5070897;28;20102;-90
2023/07/28 06:37:57;;;;;;;0.20;0.20;;;19.10;99.90;;;;;;5070854;28;20044;-91
2023/07/28 06:40:22;;;;;;;0.20;0.20;;;19.10;99.90;;;;;;5070079;28;20043;-90
2023/07/28 06:42:48;;;;;;;0.10;0.10;;;19.10;99.90;;;;;;5071447;28;20119;-90
2023/07/28 06:45:14;;;;;;;0.30;0.30;;;19.20;99.90;;;;;;5071351;28;20040;-92
2023/07/28 06:47:39;;;;;;;0.20;0.20;;;19.20;99.90;;;;;;5068642;28;20040;-91
2023/07/28 06:50:06;;;;;;;0.20;0.20;;;19.20;99.90;;;;;;5069550;28;20040;-91
2023/07/28 06:52:32;;;;;;;0.20;0.20;;;19.30;99.90;;;;;;5073033;28;20067;-90
2023/07/28 06:54:58;;;;;;;0.20;0.20;;;19.20;99.90;;;;;;5072336;28;20509;-91
2023/07/28 06:57:23;;;;;;;0.20;0.20;;;19.20;99.90;;;;;;5069833;28;20040;-91
2023/07/28 06:59:50;;;;;;;0.20;0.20;;;19.30;99.90;;;;;;5072723;28;20045;-91
2023/07/28 07:02:16;;;;;;;0.20;0.20;;;19.30;99.90;;;;;;5074609;28;20048;-91
2023/07/28 07:04:42;;;;;;;0.20;0.20;;;19.30;99.90;;;;;;5071142;28;20044;-90
2023/07/28 07:07:08;;;;;;;0.20;0.20;;;19.20;99.90;;;;;;5072677;28;20049;-90
2023/07/28 07:09:34;;;;;;;0.20;0.20;;;19.30;99.90;;;;;;5070400;28;20178;-85
2023/07/28 07:12:00;;;;;;;0.20;0.20;;;19.30;99.90;;;;;;5069476;28;20044;-85
2023/07/28 07:14:26;;;;;;;0.20;0.20;;;19.40;99.90;;;;;;5063035;28;20071;-84
2023/07/28 07:16:51;;;;;;;0.20;0.20;;;19.40;99.90;;;;;;5066531;28;20050;-85
2023/07/28 07:19:17;;;;;;;0.17;0.17;;;19.40;99.90;;;;;;5067620;28;20048;-84
2023/07/28 07:21:44;;;;;;;0.20;0.20;;;19.40;99.90;;;;;;5068730;28;20045;-84
2023/07/28 07:24:13;;;;;;;0.20;0.20;;;19.50;99.90;;;;;;5065563;28;20048;-87
2023/07/28 07:26:39;;;;;;;0.13;0.13;;;19.50;99.90;;;;;;5060116;28;20049;-85
2023/07/28 07:29:05;;;;;;;0.20;0.20;;;19.50;99.90;;;;;;5060184;28;20090;-83
2023/07/28 07:31:31;;;;;;;0.20;0.20;;;19.50;99.90;;;;;;5057810;28;20044;-86
2023/07/28 07:33:56;;;;;;;0.20;0.20;;;19.60;99.90;;;;;;5068287;28;20044;-86
2023/07/28 07:36:22;;;;;;;0.20;0.20;;;19.50;99.90;;;;;;5065823;28;20064;-86
2023/07/28 07:38:51;;;;;;;0.20;0.20;;;19.60;99.90;;;;;;5061173;28;21658;-85
2023/07/28 07:41:19;;;;;;;0.20;0.20;;;19.60;99.90;;;;;;5075758;28;20036;-86
2023/07/28 07:43:46;;;;;;;0.20;0.20;;;19.70;99.90;;;;;;5309349;23;20056;-88
2023/07/28 07:46:12;;;;;;;0.20;0.20;;;19.60;99.90;;;;;;5048297;28;20059;-90
2023/07/28 07:48:38;;;;;;;0.20;0.20;;;19.70;99.90;;;;;;5049127;28;20041;-89
2023/07/28 07:51:04;;;;;;;0.20;0.20;;;19.70;99.90;;;;;;5051830;28;20550;-90
2023/07/28 07:53:29;;;;;;;0.20;0.20;;;19.70;99.90;;;;;;5053499;28;20335;-89
2023/07/28 07:55:55;;;;;;;0.20;0.20;;;19.80;99.90;;;;;;5054433;28;20106;-89
2023/07/28 07:58:21;;;;;;;0.20;0.20;;;19.80;99.90;;;;;;5054510;28;20120;-89
2023/07/28 08:00:46;;;;;;;0.10;0.10;;;19.70;99.90;;;;;;5037652;28;20037;-88
2023/07/28 08:03:12;;;;;;;0.20;0.20;;;19.80;99.90;;;;;;5086193;28;20871;-88
2023/07/28 08:05:38;;;;;;;0.20;0.20;;;19.80;99.90;;;;;;5052964;28;20037;-87
2023/07/28 08:08:06;;;;;;;0.20;0.20;;;19.80;99.90;;;;;;5051368;28;20044;-88
2023/07/28 08:10:33;;;;;;;0.20;0.20;;;19.80;99.90;;;;;;5052760;28;20052;-88
2023/07/28 08:12:59;;;;;;;0.20;0.20;;;19.80;99.90;;;;;;5053976;28;20077;-88
2023/07/28 08:15:25;;;;;;;0.15;0.15;;;19.80;99.90;;;;;;5050122;28;20049;-88
2023/07/28 08:17:52;;;;;;;0.20;0.20;;;19.90;99.90;;;;;;5053760;28;20099;-87
2023/07/28 08:20:17;;;;;;;0.20;0.20;;;19.90;99.90;;;;;;5053829;28;20082;-88
2023/07/28 08:22:43;;;;;;;0.20;0.20;;;20.00;99.90;;;;;;5052490;28;20045;-87
2023/07/28 08:25:09;;;;;;;0.20;0.20;;;20.00;99.90;;;;;;5057868;28;20083;-86
2023/07/28 08:27:35;;;;;;;0.20;0.20;;;20.10;99.90;;;;;;5053284;28;20064;-87
2023/07/28 08:30:01;;;;;;;0.10;0.10;;;20.10;99.90;;;;;;5049479;28;20360;-88
2023/07/28 08:32:27;;;;;;;0.17;0.17;;;20.00;99.90;;;;;;5048420;28;20484;-88
2023/07/28 08:34:53;;;;;;;0.20;0.20;;;20.00;99.90;;;;;;5050896;28;20052;-87
2023/07/28 08:37:19;;;;;;;0.20;0.20;;;20.00;99.90;;;;;;5047589;28;20045;-88
2023/07/28 08:39:45;;;;;;;0.20;0.20;;;19.90;99.90;;;;;;5049847;28;20044;-87
2023/07/28 08:42:10;;;;;;;0.10;0.10;;;19.90;99.90;;;;;;5038867;28;20799;-86
2023/07/28 08:44:36;;;;;;;0.20;0.20;;;19.90;99.90;;;;;;5053183;28;20064;-85
2023/07/28 08:47:04;;;;;;;0.10;0.10;;;19.90;99.90;;;;;;5048994;28;20089;-83
2023/07/28 08:49:35;;;;;;;0.20;0.20;;;19.90;99.90;;;;;;5058585;28;20059;-88
2023/07/28 08:52:03;;;;;;;0.10;0.10;;;20.00;99.90;;;;;;5052481;28;20080;-86
2023/07/28 08:54:29;;;;;;;0.10;0.10;;;20.00;99.90;;;;;;5051219;28;20033;-89
2023/07/28 08:56:54;;;;;;;0.20;0.20;;;20.00;99.90;;;;;;5054635;28;20048;-87
2023/07/28 08:59:28;;;;;;;0.20;0.20;;;20.10;99.90;;;;;;5050332;28;20106;-88
2023/07/28 09:01:55;;;;;;;0.10;0.10;;;20.10;99.90;;;;;;5048870;28;20132;-87
2023/07/28 09:04:22;;;;;;;0.20;0.20;;;20.10;99.90;;;;;;5055028;28;20037;-88
2023/07/28 09:06:49;;;;;;;0.15;0.15;;;20.20;99.90;;;;;;5052087;28;20041;-91
2023/07/28 09:09:16;;;;;;;0.20;0.20;;;20.20;99.90;;;;;;5050831;28;20527;-86
2023/07/28 09:11:50;;;;;;;0.20;0.20;;;20.30;99.90;;;;;;5051552;28;20106;-87
2023/07/28 09:14:17;;;;;;;0.20;0.20;;;20.30;99.90;;;;;;5051612;28;20381;-89
2023/07/28 09:16:43;;;;;;;0.10;0.10;;;20.40;99.90;;;;;;5050856;28;20029;-89
2023/07/28 09:19:10;;;;;;;0.13;0.13;;;20.40;99.90;;;;;;5051777;28;20443;-88
2023/07/28 09:21:37;;;;;;;0.15;0.15;;;20.40;99.90;;;;;;5051397;28;20048;-88
2023/07/28 09:24:08;;;;;;;0.10;0.10;;;20.40;99.90;;;;;;5049211;28;20094;-88
2023/07/28 09:26:45;;;;;;;0.20;0.20;;;20.40;99.90;;;;;;5048888;28;20033;-87
2023/07/28 09:29:16;;;;;;;0.20;0.20;;;20.40;99.90;;;;;;5050149;28;20049;-88
2023/07/28 09:31:44;;;;;;;0.20;0.20;;;20.40;99.90;;;;;;5051016;28;20443;-87
2023/07/28 09:34:11;;;;;;;0.20;0.20;;;20.40;99.90;;;;;;5050115;28;20041;-89
2023/07/28 09:36:38;;;;;;;0.10;0.10;;;20.40;99.90;;;;;;5050960;28;20049;-90
2023/07/28 09:39:07;;;;;;;0.17;0.17;;;20.50;99.90;;;;;;5051047;28;20503;-88
2023/07/28 09:41:38;;;;;;;0.20;0.20;;;20.50;99.90;;;;;;5064456;28;20041;-90
2023/07/28 09:44:07;;;;;;;0.20;0.20;;;20.60;99.90;;;;;;5055290;28;20106;-86
2023/07/28 09:46:37;;;;;;;0.10;0.10;;;20.60;99.90;;;;;;5050565;28;20052;-87
2023/07/28 09:49:06;;;;;;;0.20;0.20;;;20.70;99.90;;;;;;5050739;28;20861;-88
2023/07/28 09:51:33;;;;;;;0.10;0.10;;;20.80;99.90;;;;;;5051570;28;20045;-86
2023/07/28 09:54:19;;;;;;;0.20;0.20;;;20.90;99.90;;;;;;5047587;28;20053;-87
2023/07/28 09:56:47;;;;;;;0.10;0.10;;;21.00;99.90;;;;;;5049627;28;20047;-86
2023/07/28 09:59:16;;;;;;;0.20;0.20;;;21.00;99.90;;;;;;5050553;28;20124;-86
2023/07/28 10:01:45;;;;;;;0.20;0.20;;;21.10;99.90;;;;;;5052591;28;20411;-90
2023/07/28 10:04:11;;;;;;;0.20;0.20;;;21.20;99.90;;;;;;5053218;28;20109;-86
2023/07/28 10:06:38;;;;;;;0.17;0.17;;;21.30;99.90;;;;;;5050358;28;20564;-89
2023/07/28 10:09:05;;;;;;;0.20;0.20;;;21.30;99.90;;;;;;5049885;28;20508;-89
2023/07/28 10:11:31;;;;;;;0.20;0.20;;;21.40;99.90;;;;;;5049785;28;20462;-90
2023/07/28 10:13:57;;;;;;;0.20;0.20;;;21.40;99.90;;;;;;5082595;28;20135;-91
2023/07/28 10:16:49;;;;;;;0.10;0.10;;;21.50;99.90;;;;;;5050164;28;20107;-90
2023/07/28 10:19:20;;;;;;;0.15;0.15;;;21.50;99.90;;;;;;5048774;28;20052;-92
2023/07/28 10:21:46;;;;;;;0.20;0.20;;;21.60;99.90;;;;;;5050821;28;20040;-91
2023/07/28 10:24:11;;;;;;;0.20;0.20;;;21.70;99.90;;;;;;5052301;28;20381;-93
2023/07/28 10:26:41;;;;;;;0.20;0.20;;;21.70;99.90;;;;;;5049239;28;20036;-90
2023/07/28 10:29:14;;;;;;;0.20;0.20;;;21.80;99.90;;;;;;5050928;28;20049;-91
2023/07/28 10:31:55;;;;;;;0.10;0.10;;;21.80;99.90;;;;;;5050116;28;20072;-95
2023/07/28 10:34:22;;;;;;;0.13;0.13;;;21.80;99.90;;;;;;5051256;28;20041;-96
2023/07/28 10:36:59;;;;;;;0.20;0.20;;;21.80;99.90;;;;;;5045997;28;20554;-79
2023/07/28 10:39:25;;;;;;;0.10;0.10;;;21.70;99.90;;;;;;5039743;28;20033;-81
2023/07/28 10:42:04;;;;;;;0.20;0.20;;;21.70;99.90;;;;;;5081328;28;20045;-80
2023/07/28 10:44:30;;;;;;;0.20;0.20;;;21.70;99.90;;;;;;5047025;28;20049;-81
2023/07/28 10:46:57;;;;;;;0.20;0.20;;;21.60;99.90;;;;;;5033539;28;20135;-81
2023/07/28 10:49:33;;;;;;;0.15;0.15;;;21.60;99.90;;;;;;5031589;28;20043;-80
2023/07/28 10:51:59;;;;;;;0.20;0.20;;;21.70;99.90;;;;;;5045852;28;20087;-80
2023/07/28 10:54:25;;;;;;;0.10;0.10;;;21.80;99.90;;;;;;5071461;28;20611;-80
2023/07/28 10:56:50;;;;;;;0.20;0.20;;;21.80;99.90;;;;;;5049430;28;20369;-80
2023/07/28 10:59:16;;;;;;;0.20;0.20;;;21.90;99.90;;;;;;5047533;28;20045;-80
2023/07/28 11:01:42;;;;;;;0.20;0.20;;;21.90;99.90;;;;;;5047116;28;20488;-79
2023/07/28 11:04:19;;;;;;;0.20;0.20;;;21.90;99.90;;;;;;5051493;28;20037;-81
2023/07/28 11:06:47;;;;;;;0.13;0.13;;;21.90;99.90;;;;;;5076931;28;20033;-80
2023/07/28 11:09:15;;;;;;;0.10;0.10;;;21.90;99.90;;;;;;5044115;28;20059;-81
2023/07/28 11:11:42;;;;;;;0.20;0.20;;;22.00;99.90;;;;;;5050214;28;20124;-80
2023/07/28 11:14:09;;;;;;;0.10;0.10;;;22.00;99.90;;;;;;5040090;28;20045;-80
2023/07/28 11:16:41;;;;;;;0.20;0.20;;;22.10;99.90;;;;;;5053063;28;20033;-80
2023/07/28 11:19:11;;;;;;;0.20;0.20;;;22.20;99.90;;;;;;5058058;28;20108;-80
2023/07/28 11:21:37;;;;;;;0.20;0.20;;;22.20;99.90;;;;;;5046543;28;20056;-81
2023/07/28 11:24:04;;;;;;;0.10;0.10;;;22.30;99.90;;;;;;5050740;28;20056;-80
2023/07/28 11:26:30;;;;;;;0.20;0.20;;;22.30;99.90;;;;;;5051291;28;20508;-79
2023/07/28 11:28:56;;;;;;;0.20;0.20;;;22.40;99.90;;;;;;5053975;28;20074;-82
2023/07/28 11:31:25;;;;;;;0.15;0.15;;;22.40;99.90;;;;;;5054649;28;20175;-80
2023/07/28 11:33:53;;;;;;;0.20;0.20;;;22.40;99.90;;;;;;5051209;28;20467;-80
2023/07/28 11:36:26;;;;;;;0.20;0.20;;;22.40;99.90;;;;;;5053453;28;20029;-80
2023/07/28 11:38:56;;;;;;;0.20;0.20;;;22.50;99.90;;;;;;5051362;28;20565;-80
2023/07/28 11:41:23;;;;;;;0.20;0.20;;;22.50;99.90;;;;;;5051775;28;20040;-80
2023/07/28 11:43:50;;;;;;;0.13;0.13;;;22.70;99.90;;;;;;5049331;28;20708;-79
2023/07/28 11:46:45;;;;;;;0.17;0.17;;;22.80;99.90;;;;;;5049506;28;20048;-79
2023/07/28 11:49:11;;;;;;;0.20;0.20;;;22.90;99.90;;;;;;5030734;28;20067;-79
2023/07/28 11:51:43;;;;;;;0.20;0.20;;;23.00;99.90;;;;;;5053443;28;20036;-77
2023/07/28 11:54:13;;;;;;;0.20;0.20;;;23.10;99.90;;;;;;5051596;28;20053;-82
2023/07/28 11:56:43;;;;;;;0.20;0.20;;;23.20;99.90;;;;;;5050456;28;20102;-80
2023/07/28 11:59:09;;;;;;;0.20;0.20;;;23.30;99.90;;;;;;5053402;28;20097;-81
2023/07/28 12:01:52;;;;;;;0.20;0.20;;;23.50;99.90;;;;;;5050935;28;20052;-80
2023/07/28 12:04:25;;;;;;;0.20;0.20;;;23.70;99.90;;;;;;5050356;28;20052;-83
2023/07/28 12:07:06;;;;;;;0.20;0.20;;;23.80;99.90;;;;;;5084923;28;20052;-81
2023/07/28 12:10:09;;;;;;;0.20;0.20;;;23.80;99.90;;;;;;5052425;28;20092;-79
2023/07/28 12:12:39;;;;;;;;;;;23.90;99.90;;;;;;5052257;28;20091;-79
2023/07/28 12:15:22;;;;;;;0.20;0.20;;;24.00;99.90;;;;;;5050972;28;20269;-82
2023/07/28 12:18:12;;;;;;;0.20;0.20;;;24.10;99.90;;;;;;5051140;28;20047;-94
2023/07/28 12:20:39;;;;;;;0.20;0.20;;;24.20;99.90;;;;;;5058153;28;20366;-88
2023/07/28 12:23:06;;;;;;;0.20;0.20;;;24.20;99.90;;;;;;5057470;28;20123;-92
2023/07/28 12:25:33;;;;;;;0.20;0.20;;;24.20;99.90;;;;;;5057328;28;20049;-93
2023/07/28 12:27:58;;;;;;;0.20;0.20;;;24.20;99.90;;;;;;5054975;28;20068;-94
2023/07/28 12:30:27;;;;;;;0.20;0.20;;;24.20;99.90;;;;;;5058959;28;20055;-92
2023/07/28 12:32:52;;;;;;;0.20;0.20;;;24.20;99.90;;;;;;5055969;28;20037;-93
2023/07/28 12:35:18;;;;;;;0.20;0.20;;;24.20;99.90;;;;;;5059951;28;20086;-82
2023/07/28 12:37:44;;;;;;;0.20;0.20;;;24.30;99.90;;;;;;5054059;28;20311;-80
2023/07/28 12:40:10;;;;;;;0.20;0.20;;;24.40;99.90;;;;;;5055129;28;20425;-94
2023/07/28 12:42:36;;;;;;;0.20;0.20;;;24.60;99.90;;;;;;5056592;28;20092;-94
2023/07/28 12:45:02;;;;;;;0.20;0.20;;;24.70;99.90;;;;;;5055493;28;20083;-86
2023/07/28 12:47:28;;;;;;;0.20;0.20;;;24.80;99.90;;;;;;5052038;28;20159;-84
2023/07/28 12:49:54;;;;;;;0.20;0.20;;;24.70;99.90;;;;;;5053048;28;20048;-94